This is the latest recevied weather packets stored in our database for station/object BMCB-34. If no packets are shown the sender has not sent any weather packets the latest 10 day(s).
| Time | Temp. | Humidity | Pressure | Rain* | Wind** | Luminosity | Snow |
|---|---|---|---|---|---|---|---|
| 1777453224 | 15° C | 41% | 1015.9 hPa | 0 mm | - | 454 W/m² | - |
| 1777452624 | 15° C | 41% | 1015.8 hPa | 0 mm | - | 434 W/m² | - |
| 1777452024 | 15° C | 42% | 1015.8 hPa | 0 mm | - | 412 W/m² | - |
| 1777451436 | 15° C | 42% | 1015.8 hPa | 0 mm | - | 412 W/m² | - |
| 1777450826 | 14.44° C | 43% | 1015.8 hPa | 0 mm | - | 390 W/m² | - |
| 1777450824 | 13.89° C | 46% | 1016 hPa | 0 mm | - | 368 W/m² | - |
| 1777443623 | 9.44° C | 56% | 1016.2 hPa | 0 mm | - | 98 W/m² | - |
| 1777440624 | 8.33° C | 60% | 1016 hPa | 0 mm | - | 20 W/m² | - |
| 1777438224 | 8.33° C | 61% | 1015.5 hPa | 0 mm | - | 6 W/m² | - |
| 1777437637 | 8.33° C | 61% | 1015.5 hPa | 0 mm | - | 6 W/m² | - |
| 1777436430 | 8.33° C | 62% | 1015.3 hPa | 0 mm | - | 0 W/m² | - |
| 1777435824 | 8.33° C | 62% | 1015.3 hPa | 0 mm | - | 0 W/m² | - |
| 1777434622 | 8.89° C | 60% | 1015.2 hPa | 0 mm | - | 0 W/m² | - |
| 1777434029 | 8.89° C | 60% | 1015.1 hPa | 0 mm | - | 0 W/m² | - |
| 1777432824 | 8.89° C | 60% | 1015 hPa | 0 mm | - | 0 W/m² | - |
| 1777431625 | 9.44° C | 60% | 1014.9 hPa | 0 mm | - | 0 W/m² | - |
| 1777430424 | 10° C | 59% | 1014.8 hPa | 0 mm | - | 0 W/m² | - |
| 1777429225 | 10° C | 60% | 1014.7 hPa | 0 mm | - | 0 W/m² | - |
| 1777428637 | 10° C | 58% | 1014.7 hPa | 0 mm | - | 0 W/m² | - |
| 1777427426 | 10.56° C | 58% | 1014.6 hPa | 0 mm | - | 0 W/m² | - |
| 1777425029 | 11.11° C | 58% | 1014.5 hPa | 0 mm | - | 0 W/m² | - |
| 1777422031 | 12.22° C | 55% | 1014.4 hPa | 0 mm | - | 0 W/m² | - |
| 1777417247 | 13.33° C | 53% | 1014.2 hPa | 0 mm | - | 0 W/m² | - |
| 1777416026 | 13.89° C | 53% | 1013.9 hPa | 0 mm | - | 0 W/m² | - |
| 1777415440 | 13.89° C | 53% | 1013.9 hPa | 0 mm | - | 0 W/m² | - |
* Rain latest hour (hover to see other rain measurements)
** Current wind speed in m/s (hover to see current wind gust speed)